EDT,Max TemperatureF,Mean TemperatureF,Min TemperatureF,Max Dew PointF,MeanDew PointF,Min DewpointF,Max Humidity, Mean Humidity, Min Humidity, Max Sea Level PressureIn, Mean Sea Level PressureIn, Min Sea Level PressureIn, Max VisibilityMiles, Mean VisibilityMiles, Min VisibilityMiles, Max Wind SpeedMPH, Mean Wind SpeedMPH, Max Gust SpeedMPH,PrecipitationIn, CloudCover, Events, WindDirDegrees
2013-4-1,50,43,36,45,37,25,100,81,49,30.01,29.92,29.86,10,8,0,17,7,32,0.02,5,Fog-Rain,277
2013-4-2,46,38,29,25,17,10,69,47,27,30.16,30.09,30.01,10,10,10,13,6,22,0.00,1,,308
2013-4-3,46,38,29,16,13,9,53,37,26,30.27,30.22,30.16,10,10,10,10,4,17,0.00,0,,356
2013-4-4,40,36,33,34,22,9,100,65,30,30.25,30.10,29.94,10,6,0,16,9,30,0.72,5,Fog-Rain-Snow,103
2013-4-5,54,44,33,38,33,27,100,74,40,30.07,29.98,29.92,10,6,0,10,4,16,0.01,5,Fog-Rain-Snow,320
2013-4-6,64,51,38,35,30,27,66,45,25,30.19,30.13,30.07,10,10,10,13,3,26,0.00,0,,168
2013-4-7,65,58,50,41,36,31,51,44,32,30.16,30.11,30.07,10,10,10,16,8,25,0.00,1,,206
2013-4-8,71,62,54,48,44,40,60,52,40,30.14,30.10,30.05,10,10,10,13,5,23,0.00,2,,207
2013-4-9,76,66,56,52,48,44,70,53,33,30.22,30.16,30.10,10,10,10,15,5,22,0.00,1,,229
2013-4-10,79,69,59,55,51,43,72,53,29,30.16,30.09,29.97,10,10,10,12,5,20,0.00,0,,217
2013-4-11,77,69,61,59,51,46,91,55,36,29.98,29.88,29.74,10,10,7,15,6,21,0.05,2,Rain,190
2013-4-12,62,54,46,59,47,32,99,74,47,29.93,29.76,29.62,10,10,3,18,9,32,0.49,5,Rain-Thunderstorm,251
2013-4-13,62,52,42,37,33,28,74,50,29,30.06,29.98,29.92,10,10,10,16,6,30,0.00,2,,275
2013-4-14,71,58,46,45,34,29,75,42,25,30.11,30.05,29.99,10,10,10,14,4,21,0.01,1,Rain,180
2013-4-15,62,56,50,51,49,46,90,81,66,30.17,30.08,30.00,10,10,10,18,9,28,0.06,6,Rain,126
2013-4-16,76,65,54,56,52,49,86,64,42,30.29,30.21,30.15,10,10,10,12,7,20,0.00,1,,183
2013-4-17,66,61,56,58,56,52,100,86,63,30.35,30.24,30.14,10,8,0,13,5,22,1.06,4,Rain-Thunderstorm,137
2013-4-18,73,67,61,58,54,50,77,63,47,30.14,30.07,29.93,10,10,10,16,7,30,0.00,3,,150
2013-4-19,67,54,40,60,50,32,96,77,63,29.97,29.82,29.71,10,10,2,26,11,41,0.23,6,Rain,213
2013-4-20,51,42,32,32,26,21,80,56,33,30.29,30.14,29.98,10,10,10,15,10,24,0.00,2,,306
2013-4-21,57,46,34,32,27,20,65,46,32,30.42,30.36,30.30,10,10,10,16,5,26,0.00,0,,118
2013-4-22,61,50,39,36,31,23,74,52,30,30.38,30.30,30.21,10,10,10,14,9,24,0.00,0,,123
2013-4-23,67,54,42,41,34,23,59,46,34,30.23,30.16,30.06,10,10,10,14,6,24,0.00,0,,181
2013-4-24,68,54,39,55,46,38,99,66,49,30.20,30.04,29.98,10,10,3,20,9,38,0.06,3,Rain,226
2013-4-25,57,46,36,38,30,21,99,61,26,30.35,30.26,30.20,10,10,5,9,5,12,0.03,4,,319
2013-4-26,62,48,33,34,30,27,87,46,26,30.43,30.37,30.32,10,10,10,7,2,,0.00,1,,272
2013-4-27,58,54,50,50,42,31,96,65,41,30.36,30.30,30.19,10,10,7,7,3,,0.05,8,Rain,161
2013-4-28,57,52,47,50,47,43,94,82,69,30.18,30.08,29.99,10,10,7,18,7,26,0.21,6,Rain,159
2013-4-29,60,56,51,53,50,47,99,83,69,30.06,30.03,29.99,10,10,2,9,3,,0.01,6,Rain,203
2013-4-30,73,62,52,54,51,48,92,72,42,30.19,30.09,30.02,10,10,10,9,3,22,0.00,4,,122